Time;durP1;ratioP1;P1;durP2;ratioP2;P2;SDS_P1;SDS_P2;PMS_P1;PMS_P2;Temp;Humidity;BMP_temperature;BMP_pressure;BME280_temperature;BME280_humidity;BME280_pressure;Samples;Min_cycle;Max_cycle;Signal;HPM_P1;HPM_P2
2023/04/21 00:00:08;;;;;;;23.70;10.63;;;7.30;99.90;;;;;;4058695;29;20153;-90
2023/04/21 00:02:09;;;;;;;19.25;9.52;;;8.60;99.90;;;;;;4058095;29;20052;-90
2023/04/21 00:04:13;;;;;;;24.38;12.13;;;8.80;99.90;;;;;;4021994;29;20518;-89
2023/04/21 00:06:22;;;;;;;21.52;9.95;;;8.90;99.90;;;;;;4042240;29;20481;-89
2023/04/21 00:08:22;;;;;;;18.63;9.50;;;8.60;99.90;;;;;;4059741;29;20036;-89
2023/04/21 00:10:23;;;;;;;18.08;10.65;;;8.60;99.90;;;;;;4043011;29;20109;-90
2023/04/21 00:12:24;;;;;;;20.42;9.90;;;8.60;99.90;;;;;;4027377;29;20053;-89
2023/04/21 00:14:26;;;;;;;21.98;10.27;;;8.50;99.90;;;;;;4058816;29;20124;-90
2023/04/21 00:16:28;;;;;;;23.08;10.48;;;7.50;99.90;;;;;;4046504;29;20052;-90
2023/04/21 00:18:30;;;;;;;23.70;9.60;;;8.50;99.90;;;;;;4042208;29;20044;-88
2023/04/21 00:20:31;;;;;;;18.00;9.85;;;8.40;99.90;;;;;;4014408;29;20069;-89
2023/04/21 00:22:32;;;;;;;20.00;10.10;;;8.40;99.90;;;;;;4054453;29;20381;-90
2023/04/21 00:24:35;;;;;;;20.17;10.57;;;8.40;99.90;;;;;;4058743;29;20053;-90
2023/04/21 00:26:36;;;;;;;20.95;10.57;;;8.40;99.90;;;;;;4026329;29;20093;-89
2023/04/21 00:28:37;;;;;;;22.77;10.13;;;8.40;99.90;;;;;;4057486;29;20048;-89
2023/04/21 00:30:38;;;;;;;18.65;10.02;;;8.40;99.90;;;;;;4025087;29;20050;-89
2023/04/21 00:32:40;;;;;;;20.58;10.00;;;8.40;99.90;;;;;;4030175;29;20617;-89
2023/04/21 00:34:40;;;;;;;20.35;10.10;;;8.30;99.90;;;;;;4024677;29;20474;-89
2023/04/21 00:36:41;;;;;;;18.08;8.70;;;8.30;99.90;;;;;;4023874;29;20061;-89
2023/04/21 00:38:42;;;;;;;20.48;9.38;;;8.20;99.90;;;;;;4025514;29;20056;-89
2023/04/21 00:40:43;;;;;;;20.98;10.73;;;8.80;99.90;;;;;;4024794;29;20137;-89
2023/04/21 00:42:44;;;;;;;22.65;10.57;;;8.20;99.90;;;;;;4054879;29;20100;-89
2023/04/21 00:44:46;;;;;;;22.40;10.52;;;8.20;99.90;;;;;;4024803;29;20089;-89
2023/04/21 00:46:48;;;;;;;22.58;11.23;;;8.20;99.90;;;;;;4041154;29;20057;-89
2023/04/21 00:48:50;;;;;;;19.73;9.82;;;8.70;99.90;;;;;;4040627;29;20562;-90
2023/04/21 00:50:50;;;;;;;17.13;8.88;;;8.10;99.90;;;;;;4040689;29;20131;-90
2023/04/21 00:52:52;;;;;;;22.58;10.02;;;8.40;99.90;;;;;;4057168;29;20141;-89
2023/04/21 00:54:53;;;;;;;19.92;9.63;;;8.10;99.90;;;;;;4040472;29;20128;-90
2023/04/21 00:56:57;;;;;;;22.38;10.20;;;8.00;99.90;;;;;;4025814;29;20594;-89
2023/04/21 00:59:00;;;;;;;18.42;10.23;;;8.00;99.90;;;;;;4056887;29;20091;-89
2023/04/21 01:01:04;;;;;;;16.90;9.57;;;8.00;99.90;;;;;;4037219;29;20062;-89
2023/04/21 01:03:06;;;;;;;22.08;10.68;;;8.00;99.90;;;;;;4040370;29;20083;-90
2023/04/21 01:05:10;;;;;;;17.80;9.98;;;7.10;99.90;;;;;;4040275;29;20425;-90
2023/04/21 01:07:11;;;;;;;18.90;10.38;;;8.00;99.90;;;;;;4057905;29;20059;-90
2023/04/21 01:09:14;;;;;;;22.00;10.07;;;8.00;99.90;;;;;;4055198;29;20460;-90
2023/04/21 01:11:15;;;;;;;18.42;10.30;;;8.00;99.90;;;;;;4056127;29;20084;-90
2023/04/21 01:13:20;;;;;;;23.13;10.48;;;7.90;99.90;;;;;;4023914;29;20065;-90
2023/04/21 01:15:23;;;;;;;25.10;10.50;;;7.90;99.90;;;;;;4053995;29;20048;-89
2023/04/21 01:17:26;;;;;;;18.60;10.68;;;7.90;99.90;;;;;;4044023;29;20047;-90
2023/04/21 01:19:31;;;;;;;21.42;10.50;;;7.90;99.90;;;;;;4024672;29;20049;-89
2023/04/21 01:21:40;;;;;;;23.17;10.95;;;8.30;99.90;;;;;;4040270;29;20076;-90
2023/04/21 01:23:42;;;;;;;22.27;9.85;;;6.60;99.90;;;;;;4024131;29;20092;-89
2023/04/21 01:25:43;;;;;;;20.05;10.18;;;8.20;99.90;;;;;;4057118;29;20482;-90
2023/04/21 01:27:45;;;;;;;21.98;10.52;;;7.80;99.90;;;;;;4024499;29;20057;-90
2023/04/21 01:29:49;;;;;;;20.90;10.52;;;7.70;99.90;;;;;;4039229;29;20162;-90
2023/04/21 01:31:52;;;;;;;19.63;10.23;;;7.70;99.90;;;;;;4024837;29;20068;-89
2023/04/21 01:33:53;;;;;;;20.50;10.48;;;7.70;99.90;;;;;;4031625;29;20132;-89
2023/04/21 01:35:54;;;;;;;20.17;11.40;;;7.70;99.90;;;;;;4024222;29;20057;-89
2023/04/21 01:37:56;;;;;;;20.83;10.00;;;8.10;99.90;;;;;;4039225;29;20061;-89
2023/04/21 01:39:59;;;;;;;22.70;10.32;;;6.70;99.90;;;;;;4039792;29;20040;-89
2023/04/21 01:42:01;;;;;;;21.00;10.18;;;8.40;99.90;;;;;;4052440;29;20056;-89
2023/04/21 01:44:02;;;;;;;19.05;10.45;;;7.70;99.90;;;;;;4027508;29;20086;-89
2023/04/21 01:46:04;;;;;;;19.42;10.80;;;7.70;99.90;;;;;;4039110;29;20104;-89
2023/04/21 01:48:05;;;;;;;20.52;10.23;;;7.60;99.90;;;;;;4057012;29;20067;-89
2023/04/21 01:50:07;;;;;;;19.38;10.73;;;7.60;99.90;;;;;;4025529;29;20053;-89
2023/04/21 01:52:08;;;;;;;26.85;11.30;;;7.60;99.90;;;;;;4024884;29;20050;-89
2023/04/21 01:54:08;;;;;;;20.88;10.70;;;7.70;99.90;;;;;;4024963;29;20495;-89
2023/04/21 01:56:15;;;;;;;23.95;10.10;;;7.60;99.90;;;;;;4035168;29;20073;-89
2023/04/21 01:58:17;;;;;;;20.17;10.30;;;7.60;99.90;;;;;;4041027;29;20052;-89
2023/04/21 02:00:24;;;;;;;18.20;9.73;;;7.60;99.90;;;;;;4026016;29;20132;-89
2023/04/21 02:02:26;;;;;;;19.92;9.50;;;7.70;99.90;;;;;;4058200;29;20053;-88
2023/04/21 02:04:28;;;;;;;19.33;11.57;;;7.60;99.90;;;;;;4041467;29;20490;-88
2023/04/21 02:06:30;;;;;;;19.33;10.30;;;7.70;99.90;;;;;;4031824;29;20095;-89
2023/04/21 02:08:31;;;;;;;24.33;11.80;;;7.60;99.90;;;;;;4054644;29;20053;-88
2023/04/21 02:10:33;;;;;;;23.05;10.60;;;7.60;99.90;;;;;;4056051;29;20132;-88
2023/04/21 02:12:35;;;;;;;22.98;11.30;;;7.50;99.90;;;;;;4024625;29;20427;-88
2023/04/21 02:14:37;;;;;;;18.10;10.38;;;7.60;99.90;;;;;;4039985;29;20463;-89
2023/04/21 02:16:38;;;;;;;23.25;11.43;;;7.30;99.90;;;;;;4055685;29;20048;-89
2023/04/21 02:18:38;;;;;;;16.38;11.00;;;8.10;99.90;;;;;;4017626;29;20595;-89
2023/04/21 02:20:40;;;;;;;21.02;10.70;;;7.50;99.90;;;;;;4026051;29;20182;-89
2023/04/21 02:22:43;;;;;;;19.95;10.10;;;7.50;99.90;;;;;;4039376;29;20076;-88
2023/04/21 02:24:44;;;;;;;18.77;11.30;;;7.50;99.90;;;;;;4058142;29;20048;-89
2023/04/21 02:26:45;;;;;;;19.00;10.82;;;7.60;99.90;;;;;;4026770;29;20057;-89
2023/04/21 02:28:46;;;;;;;21.10;11.30;;;7.50;99.90;;;;;;4059847;29;20041;-89
2023/04/21 02:30:47;;;;;;;21.30;11.00;;;7.50;99.90;;;;;;4027316;29;20077;-89
2023/04/21 02:32:49;;;;;;;17.25;10.40;;;7.60;99.90;;;;;;4043599;29;20433;-89
2023/04/21 02:34:50;;;;;;;19.98;11.15;;;6.70;99.90;;;;;;4028795;29;20416;-89
2023/04/21 02:36:52;;;;;;;23.40;11.65;;;7.40;99.90;;;;;;4041867;29;20140;-88
2023/04/21 02:38:54;;;;;;;23.02;10.90;;;7.40;99.90;;;;;;4058599;29;20045;-89
2023/04/21 02:40:57;;;;;;;19.48;11.50;;;7.40;99.90;;;;;;4027613;29;20038;-89
2023/04/21 02:42:59;;;;;;;22.52;11.75;;;7.40;99.90;;;;;;4027592;29;20046;-89
2023/04/21 02:44:59;;;;;;;19.58;10.63;;;7.80;99.90;;;;;;4026607;29;20041;-89
2023/04/21 02:47:06;;;;;;;22.73;11.30;;;7.40;99.90;;;;;;4023631;29;20053;-89
2023/04/21 02:49:07;;;;;;;19.33;10.85;;;7.40;99.90;;;;;;4059947;29;20088;-90
2023/04/21 02:51:14;;;;;;;22.60;10.45;;;7.40;99.90;;;;;;4027397;29;20083;-89
2023/04/21 02:53:16;;;;;;;24.38;11.45;;;7.80;99.90;;;;;;4034026;29;20045;-89
2023/04/21 02:55:16;;;;;;;22.33;11.07;;;8.10;99.90;;;;;;4043703;29;20095;-89
2023/04/21 02:57:19;;;;;;;17.90;10.65;;;6.90;99.90;;;;;;4043619;29;20056;-89
2023/04/21 02:59:20;;;;;;;20.80;10.88;;;7.30;99.90;;;;;;4060656;29;20044;-89
2023/04/21 03:01:22;;;;;;;25.60;11.07;;;7.40;99.90;;;;;;4033844;29;20505;-89
2023/04/21 03:03:23;;;;;;;21.58;10.68;;;7.70;99.90;;;;;;4043054;29;20032;-89
2023/04/21 03:05:25;;;;;;;18.67;10.73;;;7.20;99.90;;;;;;4032884;29;20041;-89
2023/04/21 03:07:27;;;;;;;27.42;11.82;;;7.30;99.90;;;;;;4043544;29;20085;-89
2023/04/21 03:09:28;;;;;;;27.20;10.65;;;6.80;99.90;;;;;;4027971;29;20128;-90
2023/04/21 03:11:29;;;;;;;20.83;10.57;;;7.30;99.90;;;;;;4026552;29;20057;-90
2023/04/21 03:13:35;;;;;;;25.23;11.57;;;7.40;99.90;;;;;;4028993;29;20112;-90
2023/04/21 03:15:37;;;;;;;19.33;10.02;;;7.50;99.90;;;;;;4034146;29;20045;-90
2023/04/21 03:17:38;;;;;;;22.08;10.65;;;7.30;99.90;;;;;;4028159;29;20046;-90
2023/04/21 03:19:40;;;;;;;22.48;10.70;;;7.20;99.90;;;;;;4043826;29;20465;-91
2023/04/21 03:21:41;;;;;;;28.27;12.25;;;7.30;99.90;;;;;;4036233;29;20060;-90
2023/04/21 03:23:43;;;;;;;20.58;11.32;;;7.20;99.90;;;;;;4030242;29;20068;-92
2023/04/21 03:25:44;;;;;;;20.40;11.07;;;7.20;99.90;;;;;;4045584;29;20060;-90
2023/04/21 03:27:45;;;;;;;22.70;10.30;;;7.20;99.90;;;;;;4030065;29;20053;-90
2023/04/21 03:29:46;;;;;;;23.33;11.98;;;7.60;99.90;;;;;;4020520;29;20523;-90
2023/04/21 03:31:49;;;;;;;21.38;11.10;;;7.20;99.90;;;;;;4045864;29;20045;-90
2023/04/21 03:33:50;;;;;;;21.23;10.20;;;7.10;99.90;;;;;;4029785;29;20072;-89
2023/04/21 03:35:53;;;;;;;22.90;10.98;;;7.20;99.90;;;;;;4043749;29;20045;-90
2023/04/21 03:37:55;;;;;;;19.55;10.07;;;6.30;99.90;;;;;;4044225;29;20060;-90
2023/04/21 03:39:57;;;;;;;20.60;10.48;;;7.10;99.90;;;;;;4041775;29;20135;-90
2023/04/21 03:42:00;;;;;;;15.60;9.52;;;7.20;99.90;;;;;;4043747;29;20037;-90
2023/04/21 03:44:00;;;;;;;19.02;10.40;;;7.20;99.90;;;;;;4041536;29;20064;-90
2023/04/21 03:46:02;;;;;;;20.45;9.80;;;7.10;99.90;;;;;;4039449;29;20063;-90
2023/04/21 03:48:03;;;;;;;18.25;10.18;;;7.20;99.90;;;;;;4057826;29;20525;-89
2023/04/21 03:50:04;;;;;;;22.20;9.55;;;7.20;99.90;;;;;;4043429;29;20045;-89
2023/04/21 03:52:06;;;;;;;18.08;9.38;;;8.00;99.90;;;;;;4042338;29;20072;-90
2023/04/21 03:54:08;;;;;;;19.48;9.15;;;7.30;99.90;;;;;;4056520;29;20045;-90
2023/04/21 03:56:11;;;;;;;21.58;9.65;;;7.30;99.90;;;;;;4042644;29;20036;-90
2023/04/21 03:58:13;;;;;;;24.38;9.63;;;7.30;99.90;;;;;;4041504;29;20061;-89
2023/04/21 04:00:14;;;;;;;14.98;8.75;;;7.30;99.90;;;;;;4042512;29;20452;-89
2023/04/21 04:02:14;;;;;;;19.40;9.00;;;7.30;99.90;;;;;;4057920;29;20496;-89
2023/04/21 04:04:16;;;;;;;19.15;9.45;;;7.90;99.90;;;;;;4058919;29;20056;-88
2023/04/21 04:06:18;;;;;;;16.85;9.20;;;7.30;99.90;;;;;;4058559;29;20505;-89
2023/04/21 04:08:18;;;;;;;18.73;8.52;;;7.60;99.90;;;;;;4055491;29;20049;-88
2023/04/21 04:10:19;;;;;;;16.42;8.68;;;7.30;99.90;;;;;;4053920;29;20055;-89
2023/04/21 04:12:20;;;;;;;24.58;9.00;;;7.30;99.90;;;;;;4039433;29;20407;-89
2023/04/21 04:14:21;;;;;;;18.58;8.48;;;7.30;99.90;;;;;;4021462;29;20057;-88
2023/04/21 04:16:22;;;;;;;16.70;8.95;;;7.40;99.90;;;;;;4051019;29;20046;-88
2023/04/21 04:18:22;;;;;;;14.90;9.77;;;7.30;99.90;;;;;;4058453;29;20105;-89
2023/04/21 04:20:23;;;;;;;22.52;9.18;;;7.40;99.90;;;;;;4057545;29;20049;-89
2023/04/21 04:22:24;;;;;;;19.52;8.38;;;6.60;99.90;;;;;;4058524;29;20049;-89
2023/04/21 04:24:25;;;;;;;19.02;8.98;;;5.90;99.90;;;;;;4027561;29;20037;-89
2023/04/21 04:26:28;;;;;;;17.98;9.27;;;7.40;99.90;;;;;;4025328;29;20042;-90
2023/04/21 04:28:29;;;;;;;18.90;10.52;;;7.40;99.90;;;;;;4058998;29;20131;-89
2023/04/21 04:30:32;;;;;;;17.85;8.95;;;7.40;99.90;;;;;;4025685;29;20056;-89
2023/04/21 04:32:32;;;;;;;18.25;9.00;;;7.50;99.90;;;;;;4059639;29;20048;-89
2023/04/21 04:34:36;;;;;;;19.15;8.75;;;7.50;99.90;;;;;;4058476;29;20061;-89
2023/04/21 04:36:38;;;;;;;16.40;8.30;;;7.40;99.90;;;;;;4027544;29;20050;-89
2023/04/21 04:38:40;;;;;;;18.65;8.52;;;7.40;99.90;;;;;;4058341;29;20056;-89
2023/04/21 04:40:42;;;;;;;18.23;8.93;;;7.40;99.90;;;;;;4063004;29;20052;-89
2023/04/21 04:42:45;;;;;;;16.48;9.43;;;7.40;99.90;;;;;;4047853;29;20048;-89
2023/04/21 04:44:46;;;;;;;20.63;9.70;;;7.40;99.90;;;;;;4060385;29;20045;-89
2023/04/21 04:46:49;;;;;;;18.52;8.95;;;6.50;99.90;;;;;;4045066;29;20052;-89
2023/04/21 04:48:49;;;;;;;18.38;9.27;;;7.70;99.90;;;;;;4026207;29;20091;-89
2023/04/21 04:50:51;;;;;;;18.27;10.20;;;7.50;99.90;;;;;;4026267;29;20058;-89
2023/04/21 04:52:52;;;;;;;19.80;9.38;;;7.50;99.90;;;;;;4033562;29;20050;-89
2023/04/21 04:54:54;;;;;;;20.98;9.20;;;7.50;99.90;;;;;;4023492;29;20086;-89
2023/04/21 04:56:55;;;;;;;19.63;9.98;;;6.20;99.90;;;;;;4059978;29;20033;-90
2023/04/21 04:58:56;;;;;;;20.92;9.38;;;7.50;99.90;;;;;;4045175;29;20052;-90
2023/04/21 05:01:09;;;;;;;25.25;10.60;;;7.60;99.90;;;;;;4060577;29;20048;-88
2023/04/21 05:03:10;;;;;;;18.15;9.52;;;7.60;99.90;;;;;;4032245;29;20057;-89
2023/04/21 05:05:11;;;;;;;22.38;9.30;;;7.60;99.90;;;;;;4046987;29;20063;-89
2023/04/21 05:07:12;;;;;;;18.98;9.20;;;8.30;99.90;;;;;;4046196;29;20074;-89
2023/04/21 05:09:15;;;;;;;23.67;10.48;;;7.60;99.90;;;;;;4057425;29;20045;-89
2023/04/21 05:11:16;;;;;;;18.55;8.43;;;7.70;99.90;;;;;;4025670;29;20087;-89
2023/04/21 05:13:17;;;;;;;13.43;9.07;;;7.80;99.90;;;;;;4040423;29;20056;-89
2023/04/21 05:15:18;;;;;;;18.15;8.68;;;7.80;99.90;;;;;;4041665;29;20403;-89
2023/04/21 05:17:19;;;;;;;18.58;7.70;;;7.80;99.90;;;;;;4053563;29;20032;-88
2023/04/21 05:19:28;;;;;;;16.15;7.70;;;7.80;99.90;;;;;;4023819;29;20518;-89
2023/04/21 05:21:30;;;;;;;17.02;8.63;;;7.90;99.90;;;;;;4058085;29;20067;-89
2023/04/21 05:23:33;;;;;;;15.40;8.10;;;8.40;99.90;;;;;;4038980;29;20127;-88
2023/04/21 05:25:37;;;;;;;18.60;8.25;;;8.00;99.90;;;;;;4039421;29;20045;-89
2023/04/21 05:27:38;;;;;;;22.70;7.78;;;8.00;99.90;;;;;;4056163;29;20044;-87
2023/04/21 05:29:39;;;;;;;15.00;7.82;;;8.00;99.90;;;;;;4055223;29;20098;-88
2023/04/21 05:31:40;;;;;;;17.52;7.80;;;8.50;99.90;;;;;;4039752;29;20063;-88
2023/04/21 05:33:42;;;;;;;17.38;7.97;;;8.60;99.90;;;;;;4038578;29;20418;-88
2023/04/21 05:35:44;;;;;;;17.75;8.00;;;8.20;99.90;;;;;;4041704;29;20060;-89
2023/04/21 05:37:44;;;;;;;18.00;8.63;;;8.20;99.90;;;;;;4040674;29;20056;-88
2023/04/21 05:39:46;;;;;;;17.92;8.30;;;8.20;99.90;;;;;;4041014;29;20049;-88
2023/04/21 05:41:47;;;;;;;15.10;8.15;;;8.30;99.90;;;;;;4039350;29;20100;-89
2023/04/21 05:43:48;;;;;;;24.15;8.13;;;8.40;99.90;;;;;;4039684;29;20422;-88
2023/04/21 05:45:49;;;;;;;18.75;8.23;;;8.40;99.90;;;;;;4026119;29;20081;-88
2023/04/21 05:47:50;;;;;;;15.45;8.02;;;8.40;99.90;;;;;;4036773;29;20060;-88
2023/04/21 05:49:52;;;;;;;16.83;7.20;;;8.50;99.90;;;;;;4038676;29;20497;-89
2023/04/21 05:51:53;;;;;;;15.40;7.35;;;8.60;99.90;;;;;;4051610;29;20045;-88
2023/04/21 05:53:56;;;;;;;21.83;7.63;;;8.60;99.90;;;;;;4049414;29;20096;-88
2023/04/21 05:55:57;;;;;;;18.70;7.85;;;7.70;99.90;;;;;;4040674;29;20458;-88
2023/04/21 05:57:59;;;;;;;12.73;7.00;;;8.70;99.90;;;;;;4057525;29;20041;-89
2023/04/21 06:00:01;;;;;;;18.10;7.68;;;8.60;99.90;;;;;;4041889;29;20103;-89
2023/04/21 06:02:02;;;;;;;20.48;8.68;;;9.50;99.90;;;;;;4032812;29;20057;-89
2023/04/21 06:04:04;;;;;;;17.27;7.93;;;8.80;99.90;;;;;;4041931;29;20144;-89
2023/04/21 06:06:05;;;;;;;11.80;7.65;;;9.00;99.90;;;;;;4041297;29;20053;-89
2023/04/21 06:08:12;;;;;;;20.15;7.72;;;9.00;99.90;;;;;;4042354;29;20118;-89
2023/04/21 06:10:15;;;;;;;16.45;7.28;;;9.10;99.90;;;;;;4041791;29;20045;-88
2023/04/21 06:12:18;;;;;;;17.83;7.32;;;9.10;99.90;;;;;;4025767;29;20102;-88
2023/04/21 06:14:20;;;;;;;17.20;7.35;;;9.20;99.90;;;;;;4042236;29;20029;-89
2023/04/21 06:16:21;;;;;;;15.70;6.53;;;9.30;99.90;;;;;;4041213;29;20059;-88
2023/04/21 06:18:26;;;;;;;22.58;6.70;;;9.40;99.90;;;;;;4054689;29;20071;-88
2023/04/21 06:20:28;;;;;;;14.73;6.78;;;9.40;99.90;;;;;;4025571;29;20483;-88
2023/04/21 06:22:29;;;;;;;12.05;6.40;;;9.50;99.90;;;;;;4041324;29;20086;-88
2023/04/21 06:24:32;;;;;;;15.48;7.00;;;9.60;99.90;;;;;;4042224;29;20422;-87
2023/04/21 06:26:33;;;;;;;13.15;6.40;;;9.70;99.90;;;;;;4057237;29;20048;-89
2023/04/21 06:28:35;;;;;;;13.88;6.43;;;9.70;99.90;;;;;;4027491;29;20060;-89
2023/04/21 06:30:38;;;;;;;16.77;7.03;;;9.80;99.90;;;;;;4058020;29;20068;-89
2023/04/21 06:32:39;;;;;;;15.52;7.30;;;9.90;99.90;;;;;;4041832;29;20511;-89
2023/04/21 06:34:41;;;;;;;15.43;6.80;;;9.90;99.90;;;;;;4026254;29;20099;-89
2023/04/21 06:36:43;;;;;;;17.63;7.40;;;10.10;99.90;;;;;;4041468;29;20721;-88
2023/04/21 06:38:44;;;;;;;13.35;7.35;;;9.70;99.90;;;;;;4058189;29;20104;-88
2023/04/21 06:40:45;;;;;;;17.83;6.45;;;11.00;99.90;;;;;;4025437;29;20435;-88
2023/04/21 06:42:47;;;;;;;17.95;6.93;;;;;;;;;;4042235;29;20577;-89
2023/04/21 06:44:49;;;;;;;13.45;6.85;;;;;;;;;;4024063;29;20054;-89
2023/04/21 06:46:50;;;;;;;12.88;6.47;;;;;;;;;;4040852;29;20040;-88
2023/04/21 06:48:52;;;;;;;13.48;7.03;;;10.30;99.90;;;;;;4026762;29;20141;-87
2023/04/21 06:50:55;;;;;;;14.82;6.78;;;10.50;99.90;;;;;;4058166;29;20469;-89
2023/04/21 06:52:55;;;;;;;15.40;6.15;;;10.60;99.90;;;;;;4059777;29;20041;-90
2023/04/21 06:54:56;;;;;;;18.58;7.13;;;10.70;99.90;;;;;;4027316;29;20092;-88
2023/04/21 06:56:58;;;;;;;16.73;6.32;;;;;;;;;;4026351;29;20049;-90
2023/04/21 06:58:59;;;;;;;10.95;6.38;;;;;;;;;;4041068;29;20056;-89
2023/04/21 07:01:02;;;;;;;17.45;6.43;;;;;;;;;;4060592;29;20048;-89
2023/04/21 07:03:03;;;;;;;18.55;7.32;;;;;;;;;;4027533;29;20062;-88
2023/04/21 07:05:04;;;;;;;16.38;6.75;;;;;;;;;;4043448;29;20134;-87
2023/04/21 07:07:05;;;;;;;15.32;6.65;;;;;;;;;;4044312;29;20061;-87
2023/04/21 07:09:06;;;;;;;14.50;6.90;;;;;;;;;;4043312;29;20484;-87
2023/04/21 07:11:07;;;;;;;15.88;6.57;;;;;;;;;;4060491;29;20545;-87
2023/04/21 07:13:09;;;;;;;13.38;6.80;;;;;;;;;;4059098;29;20044;-88
2023/04/21 07:15:10;;;;;;;16.52;6.25;;;;;;;;;;4020307;29;20050;-87
2023/04/21 07:17:12;;;;;;;11.68;6.00;;;;;;;;;;4028730;29;20058;-88
2023/04/21 07:19:15;;;;;;;15.13;5.82;;;;;;;;;;4030422;29;20064;-88
2023/04/21 07:21:15;;;;;;;13.93;6.65;;;10.80;99.90;;;;;;4028635;29;20435;-88
2023/04/21 07:23:16;;;;;;;11.93;6.80;;;12.00;99.90;;;;;;4061641;29;20044;-87
2023/04/21 07:25:17;;;;;;;17.60;6.95;;;12.10;99.90;;;;;;4035105;29;20088;-87
2023/04/21 07:27:19;;;;;;;15.65;6.88;;;12.20;99.90;;;;;;4040898;29;20120;-89
2023/04/21 07:29:20;;;;;;;13.45;6.32;;;12.30;99.90;;;;;;4039290;29;20064;-90
2023/04/21 07:31:20;;;;;;;12.85;6.10;;;12.30;99.90;;;;;;4053785;29;20049;-90
2023/04/21 07:33:21;;;;;;;14.57;6.45;;;12.40;99.90;;;;;;4039857;29;20045;-88
2023/04/21 07:35:23;;;;;;;19.08;6.72;;;12.40;99.90;;;;;;4051276;29;20053;-89
2023/04/21 07:37:25;;;;;;;13.82;7.25;;;12.50;99.90;;;;;;4065464;29;20040;-86
2023/04/21 07:39:26;;;;;;;12.55;5.57;;;12.50;99.90;;;;;;4042068;29;20063;-84
2023/04/21 07:41:28;;;;;;;22.15;6.72;;;11.40;99.90;;;;;;4027947;29;20410;-86
2023/04/21 07:43:30;;;;;;;10.15;5.97;;;12.70;99.90;;;;;;4040776;29;20124;-86
2023/04/21 07:45:30;;;;;;;19.67;6.55;;;12.80;99.90;;;;;;4009986;29;20054;-86
2023/04/21 07:47:32;;;;;;;14.95;7.30;;;12.80;99.90;;;;;;4055970;29;20485;-86
2023/04/21 07:49:33;;;;;;;16.17;6.53;;;13.00;99.90;;;;;;4023081;29;20060;-86
2023/04/21 07:51:35;;;;;;;16.90;6.20;;;13.00;99.90;;;;;;4054855;29;20036;-86
2023/04/21 07:53:37;;;;;;;17.55;8.15;;;13.10;99.90;;;;;;4039974;29;20120;-87
2023/04/21 07:55:38;;;;;;;17.10;7.53;;;13.10;99.90;;;;;;4025875;29;20511;-88
2023/04/21 07:57:40;;;;;;;15.07;7.13;;;13.20;99.90;;;;;;4025541;29;20045;-90
2023/04/21 07:59:42;;;;;;;14.00;6.07;;;13.30;99.90;;;;;;4037256;29;20901;-87
2023/04/21 08:01:43;;;;;;;15.68;6.18;;;13.60;99.90;;;;;;4057934;29;20048;-89
2023/04/21 08:03:44;;;;;;;14.07;6.53;;;13.80;99.90;;;;;;4026082;29;20522;-90
2023/04/21 08:05:46;;;;;;;11.40;6.07;;;14.10;99.90;;;;;;4038175;29;20045;-91
2023/04/21 08:07:47;;;;;;;16.42;5.90;;;;;;;;;;4056153;29;20041;-89
2023/04/21 08:09:49;;;;;;;13.70;6.85;;;;;;;;;;4025356;29;20058;-89
2023/04/21 08:11:50;;;;;;;13.48;6.68;;;14.30;99.90;;;;;;4057892;29;20119;-91
2023/04/21 08:13:51;;;;;;;11.45;5.88;;;14.60;99.90;;;;;;4042155;29;20507;-90
2023/04/21 08:15:54;;;;;;;12.93;6.55;;;;;;;;;;4045579;29;20036;-90
2023/04/21 08:17:56;;;;;;;13.77;6.97;;;;;;;;;;4042100;29;20482;-90
2023/04/21 08:19:56;;;;;;;11.23;5.55;;;14.70;99.90;;;;;;4043086;29;20041;-90
2023/04/21 08:21:57;;;;;;;12.38;6.10;;;15.20;99.90;;;;;;4042944;29;20529;-89
2023/04/21 08:23:58;;;;;;;13.95;5.82;;;15.10;99.90;;;;;;4041926;29;20048;-90
2023/04/21 08:26:01;;;;;;;10.82;5.57;;;15.20;99.90;;;;;;4027508;29;20046;-90
2023/04/21 08:28:01;;;;;;;12.60;6.47;;;15.30;99.90;;;;;;4048260;29;20055;-90
2023/04/21 08:30:03;;;;;;;12.20;5.68;;;15.50;99.90;;;;;;4050926;29;20431;-90
2023/04/21 08:32:04;;;;;;;15.70;5.57;;;15.80;99.90;;;;;;4042091;29;20053;-90
2023/04/21 08:34:06;;;;;;;16.58;6.18;;;;;;;;;;4026133;29;20060;-90
2023/04/21 08:36:08;;;;;;;12.35;5.95;;;14.90;99.90;;;;;;4025818;29;20046;-90
2023/04/21 08:38:10;;;;;;;11.50;5.50;;;16.30;99.90;;;;;;4026444;29;20057;-88
2023/04/21 08:40:11;;;;;;;12.68;5.57;;;16.30;99.90;;;;;;4039579;29;20120;-88
2023/04/21 08:42:16;;;;;;;14.80;5.35;;;16.30;99.90;;;;;;4040064;29;20057;-88
2023/04/21 08:44:18;;;;;;;11.23;5.82;;;16.40;99.90;;;;;;4038315;29;20135;-87
2023/04/21 08:46:19;;;;;;;15.32;5.55;;;16.50;99.90;;;;;;4023867;29;20081;-88
2023/04/21 08:48:22;;;;;;;12.38;5.80;;;16.70;99.90;;;;;;4055102;29;20607;-87
2023/04/21 08:50:27;;;;;;;10.75;5.95;;;16.80;99.90;;;;;;4038409;29;20048;-88
2023/04/21 08:52:28;;;;;;;10.68;5.68;;;;;;;;;;4039130;29;20073;-88
2023/04/21 08:54:37;;;;;;;17.92;5.65;;;16.80;99.90;;;;;;4060724;29;20065;-88
2023/04/21 08:56:39;;;;;;;18.17;6.20;;;17.00;99.90;;;;;;4026809;29;20057;-88
2023/04/21 08:58:41;;;;;;;12.05;5.78;;;;;;;;;;4039145;29;20581;-88
2023/04/21 09:00:45;;;;;;;12.52;5.85;;;17.20;99.90;;;;;;4054825;29;20052;-89
2023/04/21 09:02:57;;;;;;;16.13;5.78;;;17.40;99.90;;;;;;4054426;29;20124;-89
2023/04/21 09:04:59;;;;;;;12.57;5.47;;;17.50;99.90;;;;;;4054616;29;20124;-88
2023/04/21 09:07:00;;;;;;;12.55;5.65;;;17.60;99.90;;;;;;4022819;29;20060;-88
2023/04/21 09:09:01;;;;;;;15.18;6.20;;;17.60;99.90;;;;;;4022899;29;20053;-87
2023/04/21 09:11:02;;;;;;;15.38;5.35;;;;;;;;;;4038348;29;20053;-88
2023/04/21 09:13:07;;;;;;;9.07;5.05;;;17.80;99.90;;;;;;4053264;29;20045;-88
2023/04/21 09:15:10;;;;;;;10.40;5.47;;;18.00;99.90;;;;;;4040321;29;20053;-88
2023/04/21 09:17:15;;;;;;;10.05;4.88;;;18.10;99.90;;;;;;4024935;29;20076;-89
2023/04/21 09:19:17;;;;;;;17.85;6.15;;;18.20;99.90;;;;;;4039705;29;20045;-88
2023/04/21 09:21:19;;;;;;;12.35;5.45;;;18.40;99.90;;;;;;4040180;29;20052;-88
2023/04/21 09:23:20;;;;;;;12.18;5.68;;;18.50;99.90;;;;;;4034773;29;20057;-87
2023/04/21 09:25:21;;;;;;;12.80;5.15;;;18.70;99.90;;;;;;4030461;29;20052;-89
2023/04/21 09:27:22;;;;;;;9.80;4.78;;;18.90;99.90;;;;;;4038910;29;20048;-89
2023/04/21 09:29:24;;;;;;;11.95;5.03;;;19.00;99.90;;;;;;4040812;29;20132;-87
2023/04/21 09:31:27;;;;;;;16.15;5.32;;;19.20;99.90;;;;;;4059659;29;20048;-89
2023/04/21 09:33:32;;;;;;;14.68;5.45;;;19.30;99.90;;;;;;4055021;29;20056;-88
2023/04/21 09:35:40;;;;;;;16.95;4.75;;;19.40;99.90;;;;;;4023355;29;20085;-88
2023/04/21 09:37:44;;;;;;;12.07;4.47;;;19.70;99.90;;;;;;4038685;29;20060;-87
2023/04/21 09:39:45;;;;;;;14.38;5.13;;;20.00;99.90;;;;;;4055973;29;20044;-87
2023/04/21 09:41:46;;;;;;;13.50;4.78;;;20.20;99.90;;;;;;4023608;29;20071;-89
2023/04/21 09:43:47;;;;;;;12.30;4.65;;;20.10;99.20;;;;;;4022837;29;20061;-88
2023/04/21 09:45:48;;;;;;;10.27;4.90;;;20.00;98.90;;;;;;4039329;29;20053;-87
2023/04/21 09:47:50;;;;;;;12.77;5.18;;;20.00;98.80;;;;;;4054765;29;20055;-88
2023/04/21 09:49:51;;;;;;;9.90;4.63;;;20.00;98.30;;;;;;4054746;29;20052;-88
2023/04/21 09:51:52;;;;;;;9.23;4.40;;;20.10;98.20;;;;;;4055395;29;20051;-87
2023/04/21 09:53:58;;;;;;;10.98;5.15;;;20.20;98.00;;;;;;4055593;29;20096;-86
2023/04/21 09:56:01;;;;;;;12.68;4.78;;;20.30;97.70;;;;;;4055657;29;20056;-88
2023/04/21 09:58:05;;;;;;;12.18;4.55;;;20.40;97.60;;;;;;4055132;29;20051;-88
2023/04/21 10:00:08;;;;;;;14.32;5.20;;;20.60;97.20;;;;;;4055279;29;20446;-88
2023/04/21 10:02:11;;;;;;;11.20;4.57;;;20.70;96.60;;;;;;4055585;29;20088;-89
2023/04/21 10:04:13;;;;;;;7.78;4.63;;;20.90;96.50;;;;;;4055476;29;20135;-87
2023/04/21 10:06:14;;;;;;;16.10;5.20;;;21.10;96.00;;;;;;4054466;29;20512;-87
2023/04/21 10:08:16;;;;;;;12.00;4.95;;;21.20;95.40;;;;;;4037975;29;20052;-88
2023/04/21 10:10:19;;;;;;;13.85;5.35;;;21.40;95.40;;;;;;4037364;29;20056;-90
2023/04/21 10:12:21;;;;;;;12.82;5.35;;;21.70;94.70;;;;;;4038155;29;20056;-89
2023/04/21 10:14:27;;;;;;;14.18;5.28;;;21.90;94.70;;;;;;4022568;29;20042;-89
2023/04/21 10:16:28;;;;;;;12.32;5.07;;;22.80;94.20;;;;;;4021642;29;20049;-89
2023/04/21 10:18:30;;;;;;;15.15;5.55;;;22.30;94.10;;;;;;4038042;29;20410;-89
2023/04/21 10:20:33;;;;;;;7.63;4.38;;;22.30;92.60;;;;;;4053964;29;20120;-89
2023/04/21 10:22:35;;;;;;;9.60;5.75;;;22.40;92.40;;;;;;4034807;29;20041;-89
2023/04/21 10:24:39;;;;;;;17.70;4.63;;;;;;;;;;4022135;29;20050;-90
2023/04/21 10:26:41;;;;;;;12.23;4.53;;;;;;;;;;4035958;29;20521;-89
2023/04/21 10:28:52;;;;;;;15.70;5.18;;;;;;;;;;4021761;29;20575;-88
2023/04/21 10:31:13;;;;;;;13.23;5.13;;;;;;;;;;4054078;29;20117;-89
2023/04/21 10:33:17;;;;;;;11.02;4.63;;;;;;;;;;4036351;29;20068;-89
2023/04/21 10:35:22;;;;;;;17.25;4.90;;;;;;;;;;4054355;29;20413;-90
2023/04/21 10:37:23;;;;;;;16.98;4.60;;;;;;;;;;4061379;29;20413;-89